
Distance (Route):
Temperature : 0°C
Humidity : 0%
Pressure : 0hPa| Receiver | Date | Latitude | Longitude | Direction | Speed | Altitude | Climb | Temperature | Humidity | Pressure | Voltage | Killtimer | Uptime | BKT | XDATA |
|---|---|---|---|---|---|---|---|---|---|---|---|---|---|---|---|
| SP8MDH-15 | 2026-09-01 07:48:54 | 51.14538 | 22.35606 | 103° | 37km/h | 1718m | -11.1m/s | 0°C | 0% | 0hPa | 0V | 00:00:00 | 00:00:00 | 00:00:00 | |
| SP8MDH-15 | 2026-09-01 07:48:34 | 51.14543 | 22.35267 | 90° | 38km/h | 1950m | -11.4m/s | 0°C | 0% | 0hPa | 0V | 00:00:00 | 00:00:00 | 00:00:00 | |
| SP8MDH-15 | 2026-09-01 07:48:13 | 51.14505 | 22.34906 | 75° | 47km/h | 2198m | -11.6m/s | 0°C | 0% | 0hPa | 0V | 00:00:00 | 00:00:00 | 00:00:00 | |
| SP8MDH-15 | 2026-09-01 07:47:53 | 51.14449 | 22.34583 | 83° | 37km/h | 2437m | -11.4m/s | 0°C | 0% | 0hPa | 0V | 00:00:00 | 00:00:00 | 00:00:00 | |
| SP8MDH-15 | 2026-09-01 07:47:28 | 51.14420 | 22.34160 | 92° | 37km/h | 2739m | -11.2m/s | 0°C | 0% | 0hPa | 0V | 00:00:00 | 00:00:00 | 00:00:00 | |
| SP8MDH-15 | 2026-09-01 07:47:06 | 51.14379 | 22.33797 | 74° | 49km/h | 3007m | -12.6m/s | 0°C | 0% | 0hPa | 0V | 00:00:00 | 00:00:00 | 00:00:00 | |
| SP8MDH-15 | 2026-09-01 07:46:45 | 51.14319 | 22.33374 | 73° | 53km/h | 3263m | -12.5m/s | 0°C | 0% | 0hPa | 0V | 00:00:00 | 00:00:00 | 00:00:00 | |
| SP8MDH-15 | 2026-09-01 07:46:24 | 51.14252 | 22.32962 | 84° | 53km/h | 3512m | -10.8m/s | 0°C | 0% | 0hPa | 0V | 00:00:00 | 00:00:00 | 00:00:00 | |
| SP8MDH-15 | 2026-09-01 07:46:03 | 51.14174 | 22.32525 | 74° | 49km/h | 3775m | -12.9m/s | 0°C | 0% | 0hPa | 0V | 00:00:00 | 00:00:00 | 00:00:00 | |
| SP8MDH-15 | 2026-09-01 07:45:40 | 51.14085 | 22.31983 | 76° | 57km/h | 4066m | -12.5m/s | 0°C | 0% | 0hPa | 0V | 00:00:00 | 00:00:00 | 00:00:00 | |
| SP8MDH-15 | 2026-09-01 07:45:20 | 51.13994 | 22.31492 | 72° | 68km/h | 4320m | -12.7m/s | 0°C | 0% | 0hPa | 0V | 00:00:00 | 00:00:00 | 00:00:00 | |
| SP8MDH-15 | 2026-09-01 07:44:59 | 51.13854 | 22.30961 | 74° | 73km/h | 4589m | -12.9m/s | 0°C | 0% | 0hPa | 0V | 00:00:00 | 00:00:00 | 00:00:00 | |
| SP8MDH-15 | 2026-09-01 07:44:36 | 51.13725 | 22.30342 | 65° | 73km/h | 4884m | -12.4m/s | 0°C | 0% | 0hPa | 0V | 00:00:00 | 00:00:00 | 00:00:00 | |
| SP8MDH-15 | 2026-09-01 07:44:10 | 51.13554 | 22.29600 | 70° | 78km/h | 5229m | -12.7m/s | 0°C | 0% | 0hPa | 0V | 00:00:00 | 00:00:00 | 00:00:00 | |
| SP8MDH-15 | 2026-09-01 07:43:48 | 51.13408 | 22.28896 | 69° | 80km/h | 5525m | -13.4m/s | 0°C | 0% | 0hPa | 0V | 00:00:00 | 00:00:00 | 00:00:00 | |
| SP8MDH-15 | 2026-09-01 07:43:26 | 51.13253 | 22.28208 | 75° | 78km/h | 5830m | -12.5m/s | 0°C | 0% | 0hPa | 0V | 00:00:00 | 00:00:00 | 00:00:00 | |
| SP9KGR-15 | 2026-09-01 07:43:01 | 51.13105 | 22.27443 | 73° | 82km/h | 6172m | -15.4m/s | 0°C | 0% | 0hPa | 0V | 00:00:00 | 00:00:00 | 00:00:00 | |
| SP9KGR-15 | 2026-09-01 07:40:15 | 51.12344 | 22.23164 | 84° | 84km/h | 8452m | -17.0m/s | 0°C | 0% | 0hPa | 0V | 00:00:00 | 00:00:00 | 00:00:00 | |
| SP9KGR-15 | 2026-09-01 07:39:46 | 51.12259 | 22.22067 | 90° | 108km/h | 8943m | -17.3m/s | 0°C | 0% | 0hPa | 0V | 00:00:00 | 00:00:00 | 00:00:00 | |
| SP9KGR-15 | 2026-09-01 07:38:52 | 51.12186 | 22.19534 | 84° | 119km/h | 9872m | -18.6m/s | 0°C | 0% | 0hPa | 0V | 00:00:00 | 00:00:00 | 00:00:00 | |
| SQ9PSP-11 | 2026-09-01 07:38:51 | 51.12183 | 22.19488 | 89° | 111km/h | 9890m | -18.0m/s | 0°C | 0% | 0hPa | 0V | 00:00:00 | 00:00:00 | 00:00:00 | |
| SP9KGR-15 | 2026-09-01 07:38:36 | 51.12128 | 22.18877 | 82° | 119km/h | 10168m | -18.9m/s | 0°C | 0% | 0hPa | 0V | 00:00:00 | 00:00:00 | 00:00:00 | |
| SP8MDH-15 | 2026-09-01 07:38:31 | 51.12110 | 22.18658 | 80° | 93km/h | 10262m | -17.9m/s | 0°C | 0% | 0hPa | 0V | 00:00:00 | 00:00:00 | 00:00:00 | |
| SQ9PSP-11 | 2026-09-01 07:38:24 | 51.12066 | 22.18355 | 72° | 115km/h | 10393m | -18.7m/s | 0°C | 0% | 0hPa | 0V | 00:00:00 | 00:00:00 | 00:00:00 | |
| SP9KGR-15 | 2026-09-01 07:38:12 | 51.11980 | 22.17810 | 83° | 119km/h | 10622m | -19.6m/s | 0°C | 0% | 0hPa | 0V | 00:00:00 | 00:00:00 | 00:00:00 | |
| SP8MDH-15 | 2026-09-01 07:37:53 | 51.11824 | 22.16965 | 67° | 115km/h | 10991m | -19.3m/s | 0°C | 0% | 0hPa | 0V | 00:00:00 | 00:00:00 | 00:00:00 | |
| SQ9PSP-11 | 2026-09-01 07:37:50 | 51.11793 | 22.16833 | 78° | 120km/h | 11050m | -19.9m/s | 0°C | 0% | 0hPa | 0V | 00:00:00 | 00:00:00 | 00:00:00 | |
| SP9KGR-15 | 2026-09-01 07:31:50 | 51.09329 | 22.09306 | 42° | 26km/h | 17818m | 1.1m/s | 0°C | 0% | 0hPa | 0V | 00:00:00 | 00:00:00 | 00:00:00 | |
| SP8MDH-15 | 2026-09-01 07:31:40 | 51.09263 | 22.09282 | 32° | 20km/h | 17793m | 5.1m/s | 0°C | 0% | 0hPa | 0V | 00:00:00 | 00:00:00 | 00:00:00 | |
| SP9KGR-15 | 2026-09-01 07:31:33 | 51.09208 | 22.09264 | 38° | 27km/h | 17763m | 4.4m/s | 0°C | 0% | 0hPa | 0V | 00:00:00 | 00:00:00 | 00:00:00 | |
| SQ9PSP-11 | 2026-09-01 07:31:31 | 51.09197 | 22.09266 | 360° | 29km/h | 17752m | 2.3m/s | 0°C | 0% | 0hPa | 0V | 00:00:00 | 00:00:00 | 00:00:00 | |
| SP9KGR-15 | 2026-09-01 07:31:18 | 51.09121 | 22.09237 | 42° | 35km/h | 17706m | 1.9m/s | 0°C | 0% | 0hPa | 0V | 00:00:00 | 00:00:00 | 00:00:00 | |
| SP9KGR-15 | 2026-09-01 07:28:55 | 51.08842 | 22.07436 | 54° | 58km/h | 17148m | 4.3m/s | 0°C | 0% | 0hPa | 0V | 00:00:00 | 00:00:00 | 00:00:00 | |
| SP8MDH-15 | 2026-09-01 07:28:47 | 51.08790 | 22.07279 | 77° | 60km/h | 17111m | 3.4m/s | 0°C | 0% | 0hPa | 0V | 00:00:00 | 00:00:00 | 00:00:00 | |
| SP8MDH-15 | 2026-09-01 07:28:18 | 51.08576 | 22.06762 | 52° | 62km/h | 17005m | 1.5m/s | 0°C | 0% | 0hPa | 0V | 00:00:00 | 00:00:00 | 00:00:00 | |
| SP9KGR-15 | 2026-09-01 07:28:15 | 51.08555 | 22.06714 | 42° | 62km/h | 16993m | 3.8m/s | 0°C | 0% | 0hPa | 0V | 00:00:00 | 00:00:00 | 00:00:00 | |
| SP9KGR-15 | 2026-09-01 07:27:42 | 51.08287 | 22.06252 | 42° | 44km/h | 16871m | 2.9m/s | 0°C | 0% | 0hPa | 0V | 00:00:00 | 00:00:00 | 00:00:00 | |
| SP9KGR-15 | 2026-09-01 07:27:19 | 51.08105 | 22.06008 | 22° | 26km/h | 16786m | 4.3m/s | 0°C | 0% | 0hPa | 0V | 00:00:00 | 00:00:00 | 00:00:00 | |
| SP9KGR-15 | 2026-09-01 07:26:55 | 51.07939 | 22.05819 | 28° | 44km/h | 16695m | 3.5m/s | 0°C | 0% | 0hPa | 0V | 00:00:00 | 00:00:00 | 00:00:00 | |
| SP9KGR-15 | 2026-09-01 07:26:31 | 51.07770 | 22.05693 | 28° | 33km/h | 16604m | -1.2m/s | 0°C | 0% | 0hPa | 0V | 00:00:00 | 00:00:00 | 00:00:00 | |
| SP9KGR-15 | 2026-09-01 07:26:15 | 51.07673 | 22.05686 | 6° | 29km/h | 16537m | 0.8m/s | 0°C | 0% | 0hPa | 0V | 00:00:00 | 00:00:00 | 00:00:00 | |
| SP8MDH-15 | 2026-09-01 07:26:00 | 51.07608 | 22.05697 | 97° | 7km/h | 16485m | 3.2m/s | 0°C | 0% | 0hPa | 0V | 00:00:00 | 00:00:00 | 00:00:00 | |
| SP9KGR-15 | 2026-09-01 07:25:52 | 51.07582 | 22.05708 | 1° | 29km/h | 16455m | 1.0m/s | 0°C | 0% | 0hPa | 0V | 00:00:00 | 00:00:00 | 00:00:00 | |
| SP9KGR-15 | 2026-09-01 07:25:36 | 51.07547 | 22.05703 | 331° | 16km/h | 16395m | 1.3m/s | 0°C | 0% | 0hPa | 0V | 00:00:00 | 00:00:00 | 00:00:00 | |
| SQ9PSP-11 | 2026-09-01 07:24:41 | 51.07586 | 22.05387 | 125° | 26km/h | 16185m | 2.3m/s | 0°C | 0% | 0hPa | 0V | 00:00:00 | 00:00:00 | 00:00:00 | |
| SP9KGR-15 | 2026-09-01 07:23:42 | 51.07556 | 22.04467 | 65° | 44km/h | 15957m | 0.8m/s | 0°C | 0% | 0hPa | 0V | 00:00:00 | 00:00:00 | 00:00:00 | |
| SP9KGR-15 | 2026-09-01 07:23:09 | 51.07443 | 22.03732 | 86° | 57km/h | 15837m | 2.4m/s | 0°C | 0% | 0hPa | 0V | 00:00:00 | 00:00:00 | 00:00:00 | |
| SP9KGR-15 | 2026-09-01 07:22:52 | 51.07342 | 22.03323 | 70° | 58km/h | 15762m | 0.8m/s | 0°C | 0% | 0hPa | 0V | 00:00:00 | 00:00:00 | 00:00:00 | |
| SP9KGR-15 | 2026-09-01 07:22:28 | 51.07130 | 22.02749 | 55° | 91km/h | 15668m | 3.2m/s | 0°C | 0% | 0hPa | 0V | 00:00:00 | 00:00:00 | 00:00:00 | |
| SP9KGR-15 | 2026-09-01 07:22:12 | 51.06973 | 22.02373 | 63° | 77km/h | 15603m | 3.3m/s | 0°C | 0% | 0hPa | 0V | 00:00:00 | 00:00:00 | 00:00:00 | |
| SP9KGR-15 | 2026-09-01 07:21:54 | 51.06815 | 22.01980 | 58° | 46km/h | 15529m | 3.0m/s | 0°C | 0% | 0hPa | 0V | 00:00:00 | 00:00:00 | 00:00:00 | |
| SP9KGR-15 | 2026-09-01 07:21:34 | 51.06655 | 22.01563 | 58° | 71km/h | 15450m | 3.2m/s | 0°C | 0% | 0hPa | 0V | 00:00:00 | 00:00:00 | 00:00:00 | |
| SP9KGR-15 | 2026-09-01 07:21:14 | 51.06498 | 22.01164 | 65° | 62km/h | 15374m | 2.6m/s | 0°C | 0% | 0hPa | 0V | 00:00:00 | 00:00:00 | 00:00:00 | |
| SP9KGR-15 | 2026-09-01 07:20:59 | 51.06382 | 22.00886 | 53° | 66km/h | 15318m | 2.5m/s | 0°C | 0% | 0hPa | 0V | 00:00:00 | 00:00:00 | 00:00:00 | |
| SP9KGR-15 | 2026-09-01 07:20:27 | 51.06108 | 22.00362 | 52° | 38km/h | 15201m | 2.9m/s | 0°C | 0% | 0hPa | 0V | 00:00:00 | 00:00:00 | 00:00:00 | |
| SP9KGR-15 | 2026-09-01 07:19:59 | 51.05842 | 21.99991 | 25° | 35km/h | 15098m | 0.6m/s | 0°C | 0% | 0hPa | 0V | 00:00:00 | 00:00:00 | 00:00:00 | |
| SP9KGR-15 | 2026-09-01 07:19:43 | 51.05707 | 21.99804 | 26° | 37km/h | 15041m | 1.9m/s | 0°C | 0% | 0hPa | 0V | 00:00:00 | 00:00:00 | 00:00:00 | |
| SP9KGR-15 | 2026-09-01 07:19:27 | 51.05584 | 21.99612 | 56° | 49km/h | 14984m | -0.2m/s | 0°C | 0% | 0hPa | 0V | 00:00:00 | 00:00:00 | 00:00:00 | |
| SP8MDH-15 | 2026-09-01 07:19:07 | 51.05458 | 21.99390 | 64° | 40km/h | 14911m | 4.2m/s | 0°C | 0% | 0hPa | 0V | 00:00:00 | 00:00:00 | 00:00:00 | |
| SP9KGR-15 | 2026-09-01 07:19:06 | 51.05454 | 21.99381 | 35° | 18km/h | 14907m | 2.5m/s | 0°C | 0% | 0hPa | 0V | 00:00:00 | 00:00:00 | 00:00:00 | |
| SP9KGR-15 | 2026-09-01 07:18:49 | 51.05359 | 21.99178 | 34° | 46km/h | 14841m | 0.7m/s | 0°C | 0% | 0hPa | 0V | 00:00:00 | 00:00:00 | 00:00:00 | |
| SP8MDH-15 | 2026-09-01 07:18:43 | 51.05329 | 21.99100 | 82° | 29km/h | 14824m | -0.5m/s | 0°C | 0% | 0hPa | 0V | 00:00:00 | 00:00:00 | 00:00:00 | |
| SP9KGR-15 | 2026-09-01 07:18:33 | 51.05281 | 21.98957 | 70° | 46km/h | 14786m | 1.4m/s | 0°C | 0% | 0hPa | 0V | 00:00:00 | 00:00:00 | 00:00:00 | |
| SP9KGR-15 | 2026-09-01 07:18:16 | 51.05222 | 21.98685 | 67° | 46km/h | 14725m | 1.0m/s | 0°C | 0% | 0hPa | 0V | 00:00:00 | 00:00:00 | 00:00:00 | |
| SP8MDH-15 | 2026-09-01 07:18:08 | 51.05205 | 21.98544 | 85° | 38km/h | 14693m | 2.7m/s | 0°C | 0% | 0hPa | 0V | 00:00:00 | 00:00:00 | 00:00:00 | |
| SP9KGR-15 | 2026-09-01 07:17:55 | 51.05180 | 21.98301 | 71° | 58km/h | 14644m | 2.8m/s | 0°C | 0% | 0hPa | 0V | 00:00:00 | 00:00:00 | 00:00:00 | |
| SP9KGR-15 | 2026-09-01 07:17:39 | 51.05147 | 21.97944 | 94° | 46km/h | 14577m | 1.7m/s | 0°C | 0% | 0hPa | 0V | 00:00:00 | 00:00:00 | 00:00:00 | |
| SQ9PSP-11 | 2026-09-01 07:17:38 | 51.05147 | 21.97944 | 94° | 46km/h | 14577m | 1.7m/s | 0°C | 0% | 0hPa | 0V | 00:00:00 | 00:00:00 | 00:00:00 | |
| SP8MDH-15 | 2026-09-01 07:17:12 | 51.05114 | 21.97281 | 100° | 78km/h | 14471m | 2.9m/s | 0°C | 0% | 0hPa | 0V | 00:00:00 | 00:00:00 | 00:00:00 | |
| SP8MDH-15 | 2026-09-01 07:16:45 | 51.05092 | 21.96549 | 99° | 71km/h | 14370m | 1.1m/s | 0°C | 0% | 0hPa | 0V | 00:00:00 | 00:00:00 | 00:00:00 | |
| SP8MDH-15 | 2026-09-01 07:16:23 | 51.05072 | 21.95888 | 90° | 91km/h | 14289m | 3.9m/s | 0°C | 0% | 0hPa | 0V | 00:00:00 | 00:00:00 | 00:00:00 | |
| SP8MDH-15 | 2026-09-01 07:15:59 | 51.05025 | 21.95113 | 89° | 75km/h | 14200m | 3.2m/s | 0°C | 0% | 0hPa | 0V | 00:00:00 | 00:00:00 | 00:00:00 | |
| SP8MDH-15 | 2026-09-01 07:15:37 | 51.04972 | 21.94412 | 85° | 71km/h | 14118m | -0.2m/s | 0°C | 0% | 0hPa | 0V | 00:00:00 | 00:00:00 | 00:00:00 | |
| SP9KGR-15 | 2026-09-01 07:15:28 | 51.04942 | 21.94128 | 76° | 91km/h | 14082m | 4.7m/s | 0°C | 0% | 0hPa | 0V | 00:00:00 | 00:00:00 | 00:00:00 | |
| SQ9PSP-11 | 2026-09-01 07:15:26 | 51.04936 | 21.94064 | 85° | 64km/h | 14074m | 3.6m/s | 0°C | 0% | 0hPa | 0V | 00:00:00 | 00:00:00 | 00:00:00 | |
| SP8MDH-15 | 2026-09-01 07:15:15 | 51.04896 | 21.93728 | 78° | 95km/h | 14031m | 3.5m/s | 0°C | 0% | 0hPa | 0V | 00:00:00 | 00:00:00 | 00:00:00 | |
| SQ9PSP-11 | 2026-09-01 07:15:08 | 51.04867 | 21.93513 | 84° | 80km/h | 14001m | 1.1m/s | 0°C | 0% | 0hPa | 0V | 00:00:00 | 00:00:00 | 00:00:00 | |
| SP9KGR-15 | 2026-09-01 07:14:59 | 51.04820 | 21.93228 | 68° | 82km/h | 13973m | 0.8m/s | 0°C | 0% | 0hPa | 0V | 00:00:00 | 00:00:00 | 00:00:00 | |
| SP8MDH-15 | 2026-09-01 07:14:54 | 51.04795 | 21.93069 | 89° | 88km/h | 13953m | 4.8m/s | 0°C | 0% | 0hPa | 0V | 00:00:00 | 00:00:00 | 00:00:00 | |
| SQ9PSP-11 | 2026-09-01 07:14:52 | 51.04783 | 21.93002 | 69° | 68km/h | 13945m | 3.6m/s | 0°C | 0% | 0hPa | 0V | 00:00:00 | 00:00:00 | 00:00:00 | |
| SQ9PSP-11 | 2026-09-01 07:14:25 | 51.04618 | 21.92099 | 66° | 86km/h | 13839m | 1.1m/s | 0°C | 0% | 0hPa | 0V | 00:00:00 | 00:00:00 | 00:00:00 | |
| SP9KGR-15 | 2026-09-01 07:14:15 | 51.04542 | 21.91719 | 82° | 113km/h | 13798m | 3.4m/s | 0°C | 0% | 0hPa | 0V | 00:00:00 | 00:00:00 | 00:00:00 | |
| SQ9PSP-11 | 2026-09-01 07:13:47 | 51.04304 | 21.90630 | 69° | 88km/h | 13697m | 1.3m/s | 0°C | 0% | 0hPa | 0V | 00:00:00 | 00:00:00 | 00:00:00 | |
| SP9KGR-15 | 2026-09-01 07:13:39 | 51.04213 | 21.90339 | 75° | 104km/h | 13664m | 2.2m/s | 0°C | 0% | 0hPa | 0V | 00:00:00 | 00:00:00 | 00:00:00 | |
| SP9KGR-15 | 2026-09-01 07:13:22 | 51.04006 | 21.89723 | 68° | 99km/h | 13600m | 0.0m/s | 0°C | 0% | 0hPa | 0V | 00:00:00 | 00:00:00 | 00:00:00 | |
| SQ9PSP-11 | 2026-09-01 07:13:20 | 51.03979 | 21.89652 | 53° | 106km/h | 13594m | -0.1m/s | 0°C | 0% | 0hPa | 0V | 00:00:00 | 00:00:00 | 00:00:00 | |
| SQ9PSP-11 | 2026-09-01 07:13:01 | 51.03723 | 21.88959 | 54° | 95km/h | 13523m | 2.6m/s | 0°C | 0% | 0hPa | 0V | 00:00:00 | 00:00:00 | 00:00:00 | |
| SQ9PSP-11 | 2026-09-01 07:12:07 | 51.03034 | 21.87092 | 64° | 100km/h | 13323m | 0.4m/s | 0°C | 0% | 0hPa | 0V | 00:00:00 | 00:00:00 | 00:00:00 | |
| SQ9PSP-11 | 2026-09-01 07:10:11 | 51.01897 | 21.83977 | 60° | 80km/h | 12903m | -0.3m/s | 0°C | 0% | 0hPa | 0V | 00:00:00 | 00:00:00 | 00:00:00 | |
| SQ9PSP-11 | 2026-09-01 07:09:51 | 51.01722 | 21.83433 | 68° | 91km/h | 12825m | 3.3m/s | 0°C | 0% | 0hPa | 0V | 00:00:00 | 00:00:00 | 00:00:00 | |
| SQ9PSP-11 | 2026-09-01 07:09:36 | 51.01580 | 21.83009 | 55° | 95km/h | 12770m | 5.0m/s | 0°C | 0% | 0hPa | 0V | 00:00:00 | 00:00:00 | 00:00:00 | |
| SP9KGR-15 | 2026-09-01 07:09:21 | 51.01410 | 21.82563 | 51° | 86km/h | 12715m | -0.0m/s | 0°C | 0% | 0hPa | 0V | 00:00:00 | 00:00:00 | 00:00:00 | |
| SQ9PSP-11 | 2026-09-01 07:09:19 | 51.01391 | 21.82507 | 64° | 89km/h | 12706m | 1.9m/s | 0°C | 0% | 0hPa | 0V | 00:00:00 | 00:00:00 | 00:00:00 | |
| SQ9PSP-11 | 2026-09-01 07:09:00 | 51.01183 | 21.81968 | 51° | 68km/h | 12636m | 1.1m/s | 0°C | 0% | 0hPa | 0V | 00:00:00 | 00:00:00 | 00:00:00 | |
| SQ9PSP-11 | 2026-09-01 07:08:42 | 51.00992 | 21.81476 | 64° | 66km/h | 12568m | 3.9m/s | 0°C | 0% | 0hPa | 0V | 00:00:00 | 00:00:00 | 00:00:00 | |
| SP9KGR-15 | 2026-09-01 07:08:31 | 51.00880 | 21.81184 | 53° | 84km/h | 12526m | -0.5m/s | 0°C | 0% | 0hPa | 0V | 00:00:00 | 00:00:00 | 00:00:00 | |
| SQ9PSP-11 | 2026-09-01 07:08:27 | 51.00836 | 21.81082 | 56° | 86km/h | 12509m | 2.6m/s | 0°C | 0% | 0hPa | 0V | 00:00:00 | 00:00:00 | 00:00:00 | |
| SP9KGR-15 | 2026-09-01 07:08:13 | 51.00677 | 21.80720 | 62° | 75km/h | 12455m | 1.5m/s | 0°C | 0% | 0hPa | 0V | 00:00:00 | 00:00:00 | 00:00:00 | |
| SQ9PSP-11 | 2026-09-01 07:08:10 | 51.00639 | 21.80647 | 61° | 82km/h | 12443m | 3.5m/s | 0°C | 0% | 0hPa | 0V | 00:00:00 | 00:00:00 | 00:00:00 | |
| SP9KGR-15 | 2026-09-01 07:07:55 | 51.00441 | 21.80281 | 46° | 69km/h | 12383m | 2.0m/s | 0°C | 0% | 0hPa | 0V | 00:00:00 | 00:00:00 | 00:00:00 | |
| SQ9PSP-11 | 2026-09-01 07:07:52 | 51.00400 | 21.80211 | 44° | 60km/h | 12372m | 2.3m/s | 0°C | 0% | 0hPa | 0V | 00:00:00 | 00:00:00 | 00:00:00 | |
| SQ9PSP-11 | 2026-09-01 07:07:37 | 51.00210 | 21.79865 | 54° | 84km/h | 12320m | 2.6m/s | 0°C | 0% | 0hPa | 0V | 00:00:00 | 00:00:00 | 00:00:00 | |
| SQ9PSP-11 | 2026-09-01 07:07:21 | 51.00032 | 21.79494 | 43° | 75km/h | 12260m | 0.9m/s | 0°C | 0% | 0hPa | 0V | 00:00:00 | 00:00:00 | 00:00:00 | |
| SP9KGR-15 | 2026-09-01 07:07:00 | 50.99828 | 21.78988 | 53° | 62km/h | 12173m | 1.8m/s | 0°C | 0% | 0hPa | 0V | 00:00:00 | 00:00:00 | 00:00:00 | |
| SQ9PSP-11 | 2026-09-01 07:06:57 | 50.99795 | 21.78912 | 46° | 64km/h | 12162m | 1.7m/s | 0°C | 0% | 0hPa | 0V | 00:00:00 | 00:00:00 | 00:00:00 | |
| SQ9PSP-11 | 2026-09-01 07:06:17 | 50.99500 | 21.77851 | 81° | 62km/h | 11998m | 5.1m/s | 0°C | 0% | 0hPa | 0V | 00:00:00 | 00:00:00 | 00:00:00 | |
| SQ9PSP-11 | 2026-09-01 07:06:00 | 50.99433 | 21.77370 | 72° | 73km/h | 11929m | 0.7m/s | 0°C | 0% | 0hPa | 0V | 00:00:00 | 00:00:00 | 00:00:00 | |
| SQ9PSP-11 | 2026-09-01 07:02:55 | 50.98902 | 21.70025 | 73° | 113km/h | 11312m | 1.5m/s | 0°C | 0% | 0hPa | 0V | 00:00:00 | 00:00:00 | 00:00:00 | |
| SQ9PSP-11 | 2026-09-01 07:02:27 | 50.98728 | 21.68700 | 72° | 115km/h | 11214m | 3.3m/s | 0°C | 0% | 0hPa | 0V | 00:00:00 | 00:00:00 | 00:00:00 | |
| SQ9PSP-11 | 2026-09-01 07:02:07 | 50.98595 | 21.67775 | 71° | 126km/h | 11143m | 3.8m/s | 0°C | 0% | 0hPa | 0V | 00:00:00 | 00:00:00 | 00:00:00 | |
| SQ9PSP-11 | 2026-09-01 07:01:50 | 50.98482 | 21.66997 | 73° | 128km/h | 11077m | 1.6m/s | 0°C | 0% | 0hPa | 0V | 00:00:00 | 00:00:00 | 00:00:00 | |
| SQ9PSP-11 | 2026-09-01 07:01:32 | 50.98347 | 21.66196 | 68° | 119km/h | 11006m | 3.6m/s | 0°C | 0% | 0hPa | 0V | 00:00:00 | 00:00:00 | 00:00:00 | |
| SQ9PSP-11 | 2026-09-01 07:01:10 | 50.98175 | 21.65166 | 83° | 120km/h | 10915m | 2.4m/s | 0°C | 0% | 0hPa | 0V | 00:00:00 | 00:00:00 | 00:00:00 | |
| SQ9PSP-11 | 2026-09-01 07:00:42 | 50.97957 | 21.63870 | 75° | 106km/h | 10802m | 2.7m/s | 0°C | 0% | 0hPa | 0V | 00:00:00 | 00:00:00 | 00:00:00 | |
| SQ9PSP-11 | 2026-09-01 07:00:24 | 50.97846 | 21.63024 | 85° | 120km/h | 10727m | 3.4m/s | 0°C | 0% | 0hPa | 0V | 00:00:00 | 00:00:00 | 00:00:00 | |
| SQ9PSP-11 | 2026-09-01 06:59:55 | 50.97725 | 21.61632 | 88° | 111km/h | 10615m | 4.6m/s | 0°C | 0% | 0hPa | 0V | 00:00:00 | 00:00:00 | 00:00:00 | |
| SQ9PSP-11 | 2026-09-01 06:59:38 | 50.97667 | 21.60791 | 89° | 126km/h | 10548m | 1.7m/s | 0°C | 0% | 0hPa | 0V | 00:00:00 | 00:00:00 | 00:00:00 | |
| SQ9PSP-11 | 2026-09-01 06:59:23 | 50.97617 | 21.60024 | 88° | 135km/h | 10495m | 3.2m/s | 0°C | 0% | 0hPa | 0V | 00:00:00 | 00:00:00 | 00:00:00 | |
| SQ9PSP-11 | 2026-09-01 06:59:04 | 50.97545 | 21.59061 | 83° | 110km/h | 10432m | 1.4m/s | 0°C | 0% | 0hPa | 0V | 00:00:00 | 00:00:00 | 00:00:00 | |
| SQ9EZE-15 | 2026-09-01 06:55:46 | 50.97255 | 21.48623 | 92° | 120km/h | 9796m | 1.4m/s | 0°C | 0% | 0hPa | 0V | 00:00:00 | 00:00:00 | 00:00:00 | |
| SQ9EZE-15 | 2026-09-01 06:55:24 | 50.97230 | 21.47494 | 85° | 141km/h | 9719m | 3.8m/s | 0°C | 0% | 0hPa | 0V | 00:00:00 | 00:00:00 | 00:00:00 | |
| SQ9EZE-15 | 2026-09-01 06:55:02 | 50.97209 | 21.46325 | 84° | 137km/h | 9641m | 2.6m/s | 0°C | 0% | 0hPa | 0V | 00:00:00 | 00:00:00 | 00:00:00 | |
| SQ9EZE-15 | 2026-09-01 06:54:35 | 50.97183 | 21.44856 | 86° | 146km/h | 9547m | 4.8m/s | 0°C | 0% | 0hPa | 0V | 00:00:00 | 00:00:00 | 00:00:00 | |
| SQ9EZE-15 | 2026-09-01 06:54:15 | 50.97154 | 21.43715 | 88° | 144km/h | 9472m | 3.0m/s | 0°C | 0% | 0hPa | 0V | 00:00:00 | 00:00:00 | 00:00:00 |